createdAt,value
2018-05-24T00:00:01.513Z,0.00
2018-05-24T00:00:37.050Z,0.00
2018-05-24T00:01:12.290Z,0.00
2018-05-24T00:01:47.589Z,0.00
2018-05-24T00:02:24.216Z,0.00
2018-05-24T00:02:59.895Z,0.00
2018-05-24T00:03:35.628Z,0.00
2018-05-24T00:04:10.849Z,0.00
2018-05-24T00:04:47.497Z,0.00
2018-05-24T00:05:23.173Z,0.00
2018-05-24T00:05:58.399Z,0.00
2018-05-24T00:06:33.737Z,0.00
2018-05-24T00:07:08.975Z,0.00
2018-05-24T00:07:44.299Z,0.00
2018-05-24T00:08:19.613Z,0.00
2018-05-24T00:08:55.005Z,0.00
2018-05-24T00:09:30.388Z,0.00
2018-05-24T00:10:05.592Z,0.00
2018-05-24T00:10:41.579Z,0.00
2018-05-24T00:11:17.005Z,0.00
2018-05-24T00:11:52.429Z,0.00
2018-05-24T00:12:27.857Z,0.00
2018-05-24T00:13:03.194Z,0.00
2018-05-24T00:13:38.688Z,0.00
2018-05-24T00:14:14.407Z,0.00
2018-05-24T00:14:49.720Z,0.00
2018-05-24T00:15:24.990Z,0.00
2018-05-24T00:16:00.303Z,0.00
2018-05-24T00:16:35.538Z,0.00
2018-05-24T00:17:11.053Z,0.00
2018-05-24T00:17:46.691Z,0.00
2018-05-24T00:18:22.180Z,0.00
2018-05-24T00:18:57.524Z,0.00
2018-05-24T00:19:32.844Z,0.00
2018-05-24T00:20:08.308Z,0.00
2018-05-24T00:20:45.823Z,0.00
2018-05-24T00:21:27.480Z,0.00
2018-05-24T00:22:02.887Z,0.00
2018-05-24T00:22:38.197Z,0.00
2018-05-24T00:23:13.482Z,0.00
2018-05-24T00:23:49.103Z,0.00
2018-05-24T00:24:24.600Z,0.00
2018-05-24T00:25:00.017Z,0.00
2018-05-24T00:25:35.438Z,0.00
2018-05-24T00:26:10.862Z,0.00
2018-05-24T00:26:46.171Z,0.00
2018-05-24T00:27:22.106Z,0.00
2018-05-24T00:27:57.506Z,0.00
2018-05-24T00:28:32.855Z,0.00
2018-05-24T00:29:08.235Z,0.00
2018-05-24T00:29:43.568Z,0.00
2018-05-24T00:30:19.004Z,0.00
2018-05-24T00:30:54.644Z,0.00
2018-05-24T00:31:30.070Z,0.00
2018-05-24T00:32:06.533Z,0.00
2018-05-24T00:32:41.847Z,0.00
2018-05-24T00:33:17.296Z,0.00
2018-05-24T00:33:52.506Z,0.00
2018-05-24T00:34:27.854Z,0.00
2018-05-24T00:35:03.375Z,0.00
2018-05-24T00:35:39.033Z,0.00
2018-05-24T00:36:14.725Z,0.00
2018-05-24T00:36:50.160Z,0.00
2018-05-24T00:37:27.261Z,0.00
2018-05-24T00:38:02.680Z,0.00
2018-05-24T00:38:37.908Z,0.00
2018-05-24T00:39:13.157Z,0.00
2018-05-24T00:39:48.555Z,0.00
2018-05-24T00:40:23.790Z,0.00
2018-05-24T00:40:59.468Z,0.00
2018-05-24T00:41:34.912Z,0.00
2018-05-24T00:42:10.461Z,0.00
2018-05-24T00:42:45.812Z,0.00
2018-05-24T00:43:21.105Z,0.00
2018-05-24T00:43:56.878Z,0.00
2018-05-24T00:44:32.718Z,0.00
2018-05-24T00:45:08.181Z,0.00
2018-05-24T00:45:43.714Z,0.00
2018-05-24T00:46:19.174Z,0.00
2018-05-24T00:46:54.498Z,0.00
2018-05-24T00:47:30.144Z,0.00
2018-05-24T00:48:05.642Z,0.00
2018-05-24T00:48:41.410Z,0.00
2018-05-24T00:49:16.795Z,0.00
2018-05-24T00:49:52.342Z,0.00
2018-05-24T00:50:27.564Z,0.00
2018-05-24T00:51:03.018Z,0.00
2018-05-24T00:51:38.118Z,0.00
2018-05-24T00:52:14.400Z,0.00
2018-05-24T00:52:50.382Z,0.00
2018-05-24T00:53:25.974Z,0.00
2018-05-24T00:54:01.317Z,0.00
2018-05-24T00:54:36.568Z,0.00
2018-05-24T00:55:11.864Z,0.00
2018-05-24T00:55:47.335Z,0.00
2018-05-24T00:56:22.840Z,0.00
2018-05-24T00:56:58.249Z,0.00
2018-05-24T00:57:33.867Z,0.00
2018-05-24T00:58:09.207Z,0.00
2018-05-24T00:58:45.015Z,0.00
2018-05-24T00:59:20.560Z,0.00
2018-05-24T00:59:56.139Z,0.00
2018-05-24T01:00:31.511Z,0.00
2018-05-24T01:01:06.927Z,0.00
2018-05-24T01:01:42.351Z,0.00
2018-05-24T01:02:17.675Z,0.00
2018-05-24T01:02:53.090Z,0.00
2018-05-24T01:03:28.309Z,0.00
2018-05-24T01:04:03.565Z,0.00
2018-05-24T01:04:38.870Z,0.00
2018-05-24T01:05:14.434Z,0.00
2018-05-24T01:05:49.851Z,0.00
2018-05-24T01:06:25.092Z,0.00
2018-05-24T01:07:00.211Z,0.00
2018-05-24T01:07:35.564Z,0.00
2018-05-24T01:08:11.111Z,0.00
2018-05-24T01:08:46.751Z,0.00
2018-05-24T01:09:22.143Z,0.00
2018-05-24T01:09:57.574Z,0.00
2018-05-24T01:10:32.947Z,0.00
2018-05-24T01:11:08.381Z,0.00
2018-05-24T01:11:43.901Z,0.00
2018-05-24T01:12:20.141Z,0.00
2018-05-24T01:12:55.767Z,0.00
2018-05-24T01:13:31.203Z,0.00
2018-05-24T01:14:06.500Z,0.00
2018-05-24T01:14:41.720Z,0.00
2018-05-24T01:15:17.051Z,0.00
2018-05-24T01:15:52.408Z,0.00
2018-05-24T01:16:27.571Z,0.00
2018-05-24T01:17:03.520Z,0.00
2018-05-24T01:17:38.923Z,0.00
2018-05-24T01:18:14.651Z,0.00
2018-05-24T01:18:49.868Z,0.00
2018-05-24T01:19:25.402Z,0.00
2018-05-24T01:20:00.906Z,0.00
2018-05-24T01:20:36.411Z,0.00
2018-05-24T01:21:11.690Z,0.00
2018-05-24T01:21:47.304Z,0.00
2018-05-24T01:22:22.736Z,0.00
2018-05-24T01:22:57.997Z,0.00
2018-05-24T01:23:33.566Z,0.00
2018-05-24T01:24:09.037Z,0.00
2018-05-24T01:24:44.640Z,0.00
2018-05-24T01:25:19.889Z,0.00
2018-05-24T01:25:55.249Z,0.00
2018-05-24T01:26:30.386Z,0.00
2018-05-24T01:27:05.763Z,0.00
2018-05-24T01:27:41.201Z,0.00
2018-05-24T01:28:16.288Z,0.00
2018-05-24T01:28:51.435Z,0.00
2018-05-24T01:29:26.934Z,0.00
2018-05-24T01:30:02.447Z,0.00
2018-05-24T01:30:38.098Z,0.00
2018-05-24T01:31:13.436Z,0.00
2018-05-24T01:31:48.732Z,0.00
2018-05-24T01:32:27.450Z,0.00
2018-05-24T01:33:02.671Z,0.00
2018-05-24T01:33:37.853Z,0.00
2018-05-24T01:34:13.273Z,0.00
2018-05-24T01:34:49.109Z,0.00
2018-05-24T01:35:24.653Z,0.00
2018-05-24T01:35:59.972Z,0.00
2018-05-24T01:36:35.332Z,0.00
2018-05-24T01:37:10.863Z,0.00
2018-05-24T01:37:46.183Z,0.00
2018-05-24T01:38:21.651Z,0.00
2018-05-24T01:38:57.154Z,0.00
2018-05-24T01:39:32.785Z,0.00
2018-05-24T01:40:08.406Z,0.00
2018-05-24T01:40:44.267Z,0.00
2018-05-24T01:41:20.132Z,0.00
2018-05-24T01:41:55.250Z,0.00
2018-05-24T01:42:30.753Z,0.00
2018-05-24T01:43:06.004Z,0.00
2018-05-24T01:43:41.500Z,0.00
2018-05-24T01:44:16.908Z,0.00
2018-05-24T01:44:52.612Z,0.00
2018-05-24T01:45:27.873Z,0.00
2018-05-24T01:46:03.207Z,0.00
2018-05-24T01:46:39.181Z,0.00
2018-05-24T01:47:14.593Z,0.00
2018-05-24T01:47:50.359Z,0.00
2018-05-24T01:48:26.205Z,0.00
2018-05-24T01:49:01.770Z,0.00
2018-05-24T01:49:37.080Z,0.00
2018-05-24T01:50:12.315Z,0.00
2018-05-24T01:50:50.648Z,0.00
2018-05-24T01:51:26.177Z,0.00
2018-05-24T01:52:01.884Z,0.00
2018-05-24T01:52:37.449Z,0.00
2018-05-24T01:53:13.000Z,0.00
2018-05-24T01:53:48.422Z,0.00
2018-05-24T01:54:23.749Z,0.00
2018-05-24T01:54:59.500Z,0.00
2018-05-24T01:55:35.145Z,0.00
2018-05-24T01:56:10.554Z,0.00
2018-05-24T01:56:48.654Z,0.00
2018-05-24T01:57:24.102Z,0.00
2018-05-24T01:58:00.781Z,0.00
2018-05-24T01:58:36.423Z,0.00
2018-05-24T01:59:11.998Z,0.00
2018-05-24T01:59:47.008Z,0.00
2018-05-24T02:00:27.044Z,0.00
2018-05-24T02:01:02.191Z,0.00
2018-05-24T02:01:38.407Z,0.00
2018-05-24T02:02:13.729Z,0.00
2018-05-24T02:02:51.740Z,0.00
2018-05-24T02:03:26.965Z,0.00
2018-05-24T02:04:02.177Z,0.00
2018-05-24T02:04:37.505Z,0.00
2018-05-24T02:05:12.814Z,0.00
2018-05-24T02:05:48.195Z,0.00
2018-05-24T02:06:23.808Z,0.00
2018-05-24T02:06:59.154Z,0.00
2018-05-24T02:07:34.862Z,0.00
2018-05-24T02:08:10.281Z,0.00
2018-05-24T02:08:45.478Z,0.00
2018-05-24T02:09:21.013Z,0.00
2018-05-24T02:09:56.552Z,0.00
2018-05-24T02:10:32.257Z,0.00
2018-05-24T02:11:07.582Z,0.00
2018-05-24T02:11:43.387Z,0.00
2018-05-24T02:12:18.681Z,0.00
2018-05-24T02:12:53.912Z,0.00
2018-05-24T02:13:29.565Z,0.00
2018-05-24T02:14:04.712Z,0.00
2018-05-24T02:14:40.658Z,0.00
2018-05-24T02:15:16.014Z,0.00
2018-05-24T02:15:51.333Z,0.00
2018-05-24T02:16:27.947Z,0.00
2018-05-24T02:17:03.263Z,0.00
2018-05-24T02:17:38.711Z,0.00
2018-05-24T02:18:14.145Z,0.00
2018-05-24T02:18:50.378Z,0.00
2018-05-24T02:19:25.696Z,0.00
2018-05-24T02:20:01.080Z,0.00
2018-05-24T02:20:37.126Z,0.00
2018-05-24T02:21:12.583Z,0.00
2018-05-24T02:21:47.972Z,0.00
2018-05-24T02:22:23.506Z,0.00
2018-05-24T02:22:58.731Z,0.00
2018-05-24T02:23:34.057Z,0.00
2018-05-24T02:24:09.556Z,0.00
2018-05-24T02:24:44.916Z,0.00
2018-05-24T02:25:20.360Z,0.00
2018-05-24T02:25:55.588Z,0.00
2018-05-24T02:26:31.452Z,0.00
2018-05-24T02:27:08.316Z,0.00
2018-05-24T02:27:43.614Z,0.00
2018-05-24T02:28:19.366Z,0.00
2018-05-24T02:28:54.700Z,0.00
2018-05-24T02:29:30.414Z,0.00
2018-05-24T02:30:05.779Z,0.00
2018-05-24T02:30:41.462Z,0.00
2018-05-24T02:31:18.777Z,0.00
2018-05-24T02:31:54.499Z,0.00
2018-05-24T02:32:29.722Z,0.00
2018-05-24T02:33:04.967Z,0.00
2018-05-24T02:33:40.190Z,0.00
2018-05-24T02:34:15.824Z,0.00
2018-05-24T02:34:51.514Z,0.00
2018-05-24T02:35:26.922Z,0.00
2018-05-24T02:36:02.199Z,0.00
2018-05-24T02:36:41.086Z,0.00
2018-05-24T02:37:16.316Z,0.00
2018-05-24T02:37:51.661Z,0.00
2018-05-24T02:38:30.866Z,0.00
2018-05-24T02:39:06.509Z,0.00
2018-05-24T02:39:41.819Z,0.00
2018-05-24T02:40:17.218Z,0.00
2018-05-24T02:40:55.059Z,0.00
2018-05-24T02:41:31.190Z,0.00
2018-05-24T02:42:06.509Z,0.00
2018-05-24T02:42:45.105Z,0.00
2018-05-24T02:43:20.437Z,0.00
2018-05-24T02:43:55.773Z,0.00
2018-05-24T02:44:31.084Z,0.00
2018-05-24T02:45:06.520Z,0.00
2018-05-24T02:45:42.354Z,0.00
2018-05-24T02:46:21.000Z,0.00
2018-05-24T02:46:56.920Z,0.00
2018-05-24T02:47:32.663Z,4.00
2018-05-24T02:48:08.273Z,4.00
2018-05-24T02:48:44.017Z,4.00
2018-05-24T02:49:19.451Z,4.00
2018-05-24T02:49:54.968Z,4.00
2018-05-24T02:50:30.634Z,0.00
2018-05-24T02:51:06.766Z,0.00
2018-05-24T02:51:43.066Z,0.00
2018-05-24T02:52:18.415Z,0.00
2018-05-24T02:52:54.649Z,0.00
2018-05-24T02:53:30.090Z,4.00
2018-05-24T02:54:05.503Z,4.00
2018-05-24T02:54:40.626Z,4.00
2018-05-24T02:55:16.048Z,4.00
2018-05-24T02:55:51.491Z,4.00
2018-05-24T02:56:29.928Z,4.00
2018-05-24T02:57:06.300Z,4.00
2018-05-24T02:57:41.898Z,4.00
2018-05-24T02:58:17.335Z,0.00
2018-05-24T02:58:52.642Z,0.00
2018-05-24T02:59:28.287Z,0.00
2018-05-24T03:00:05.672Z,4.00
2018-05-24T03:00:41.018Z,4.00
2018-05-24T03:01:16.430Z,4.00
2018-05-24T03:01:52.058Z,4.00
2018-05-24T03:02:27.220Z,4.00
2018-05-24T03:03:02.640Z,4.00
2018-05-24T03:03:37.737Z,4.00
2018-05-24T03:04:13.119Z,8.00
2018-05-24T03:04:51.663Z,8.00
2018-05-24T03:05:27.113Z,12.00
2018-05-24T03:06:02.539Z,8.00
2018-05-24T03:06:37.871Z,12.00
2018-05-24T03:07:12.996Z,12.00
2018-05-24T03:07:48.222Z,16.00
2018-05-24T03:08:23.723Z,20.00
2018-05-24T03:08:59.171Z,20.00
2018-05-24T03:09:37.283Z,20.00
2018-05-24T03:10:12.900Z,28.00
2018-05-24T03:10:51.730Z,24.00
2018-05-24T03:11:30.470Z,32.00
2018-05-24T03:12:05.877Z,32.00
2018-05-24T03:12:41.216Z,36.00
2018-05-24T03:13:16.492Z,40.00
2018-05-24T03:13:51.926Z,36.00
2018-05-24T03:14:27.406Z,40.00
2018-05-24T03:15:02.557Z,44.00
2018-05-24T03:15:41.007Z,44.00
2018-05-24T03:16:19.516Z,52.00
2018-05-24T03:16:55.110Z,56.00
2018-05-24T03:17:30.571Z,60.00
2018-05-24T03:18:05.767Z,64.00
2018-05-24T03:18:42.542Z,68.00
2018-05-24T03:19:18.048Z,72.00
2018-05-24T03:19:53.889Z,76.00
2018-05-24T03:20:29.518Z,80.00
2018-05-24T03:21:08.157Z,84.00
2018-05-24T03:21:43.499Z,88.00
2018-05-24T03:22:21.636Z,88.00
2018-05-24T03:22:57.132Z,92.00
2018-05-24T03:23:34.790Z,96.00
2018-05-24T03:24:10.086Z,92.00
2018-05-24T03:24:48.728Z,96.00
2018-05-24T03:25:24.089Z,100.00
2018-05-24T03:25:59.461Z,108.00
2018-05-24T03:26:35.461Z,116.00
2018-05-24T03:27:10.809Z,124.00
2018-05-24T03:27:46.222Z,132.00
2018-05-24T03:28:21.753Z,136.00
2018-05-24T03:29:01.952Z,144.00
2018-05-24T03:29:37.405Z,152.00
2018-05-24T03:30:16.382Z,164.00
2018-05-24T03:30:51.603Z,176.00
2018-05-24T03:31:41.606Z,192.00
2018-05-24T03:32:17.257Z,200.00
2018-05-24T03:32:52.473Z,212.00
2018-05-24T03:33:29.016Z,224.00
2018-05-24T03:34:07.449Z,244.00
2018-05-24T03:34:42.890Z,256.00
2018-05-24T03:35:18.436Z,268.00
2018-05-24T03:35:53.671Z,284.00
2018-05-24T03:36:29.104Z,296.00
2018-05-24T03:37:04.444Z,308.00
2018-05-24T03:37:39.540Z,312.00
2018-05-24T03:38:18.887Z,316.00
2018-05-24T03:38:57.299Z,320.00
2018-05-24T03:39:36.018Z,324.00
2018-05-24T03:40:11.475Z,324.00
2018-05-24T03:40:50.748Z,324.00
2018-05-24T03:41:26.197Z,328.00
2018-05-24T03:42:01.551Z,324.00
2018-05-24T03:42:36.883Z,324.00
2018-05-24T03:43:12.129Z,324.00
2018-05-24T03:43:51.469Z,324.00
2018-05-24T03:44:28.116Z,324.00
2018-05-24T03:45:03.515Z,332.00
2018-05-24T03:45:40.189Z,332.00
2018-05-24T03:46:15.773Z,336.00
2018-05-24T03:46:51.524Z,336.00
2018-05-24T03:47:27.040Z,336.00
2018-05-24T03:48:02.766Z,328.00
2018-05-24T03:48:41.389Z,312.00
2018-05-24T03:51:55.659Z,256.00
2018-05-24T03:52:31.184Z,248.00
2018-05-24T03:53:10.580Z,244.00
2018-05-24T03:53:45.999Z,248.00
2018-05-24T03:54:24.283Z,256.00
2018-05-24T03:55:02.812Z,272.00
2018-05-24T03:55:41.120Z,284.00
2018-05-24T03:56:16.372Z,292.00
2018-05-24T03:56:52.221Z,312.00
2018-05-24T03:57:27.860Z,328.00
2018-05-24T03:58:06.151Z,336.00
2018-05-24T03:58:44.871Z,352.00
2018-05-24T03:59:20.371Z,356.00
2018-05-24T03:59:55.808Z,356.00
2018-05-24T04:00:31.130Z,348.00
2018-05-24T04:01:06.455Z,344.00
2018-05-24T04:01:44.953Z,340.00
2018-05-24T04:02:20.477Z,336.00
2018-05-24T04:02:55.802Z,332.00
2018-05-24T04:03:31.227Z,328.00
2018-05-24T04:04:09.507Z,328.00
2018-05-24T04:04:50.517Z,324.00
2018-05-24T04:05:25.933Z,320.00
2018-05-24T04:06:01.248Z,320.00
2018-05-24T04:06:37.606Z,316.00
2018-05-24T04:07:16.235Z,320.00
2018-05-24T04:07:51.480Z,316.00
2018-05-24T04:08:26.808Z,320.00
2018-05-24T04:09:06.145Z,336.00
2018-05-24T04:09:44.492Z,360.00
2018-05-24T04:10:20.118Z,380.00
2018-05-24T04:10:55.754Z,400.00
2018-05-24T04:11:34.167Z,428.00
2018-05-24T04:12:09.502Z,444.00
2018-05-24T04:12:44.922Z,468.00
2018-05-24T04:13:20.338Z,488.00
2018-05-24T04:13:58.035Z,500.00
2018-05-24T04:14:33.540Z,500.00
2018-05-24T04:15:08.763Z,496.00
2018-05-24T04:15:44.122Z,484.00
2018-05-24T04:16:19.727Z,472.00
2018-05-24T04:16:55.235Z,460.00
2018-05-24T04:17:30.731Z,452.00
2018-05-24T04:18:06.041Z,448.00
2018-05-24T04:18:44.370Z,456.00
2018-05-24T04:19:20.889Z,464.00
2018-05-24T04:19:55.990Z,476.00
2018-05-24T04:20:31.341Z,496.00
2018-05-24T04:21:06.454Z,520.00
2018-05-24T04:21:44.928Z,544.00
2018-05-24T04:22:20.548Z,564.00
2018-05-24T04:22:56.274Z,584.00
2018-05-24T04:23:32.393Z,596.00
2018-05-24T04:24:07.742Z,604.00
2018-05-24T04:24:42.880Z,612.00
2018-05-24T04:25:18.436Z,616.00
2018-05-24T04:25:55.835Z,616.00
2018-05-24T04:26:31.168Z,604.00
2018-05-24T04:27:06.421Z,588.00
2018-05-24T04:27:43.069Z,552.00
2018-05-24T04:28:18.677Z,528.00
2018-05-24T04:28:54.707Z,516.00
2018-05-24T04:29:30.331Z,516.00
2018-05-24T04:30:05.759Z,532.00
2018-05-24T04:30:41.566Z,564.00
2018-05-24T04:31:16.786Z,616.00
2018-05-24T04:31:52.195Z,680.00
2018-05-24T04:32:27.405Z,744.00
2018-05-24T04:33:02.648Z,796.00
2018-05-24T04:33:37.889Z,832.00
2018-05-24T04:34:13.198Z,856.00
2018-05-24T04:34:49.770Z,876.00
2018-05-24T04:35:25.840Z,908.00
2018-05-24T04:36:01.145Z,964.00
2018-05-24T04:36:41.043Z,1040.00
2018-05-24T04:37:16.674Z,1120.00
2018-05-24T04:37:59.464Z,1228.00
2018-05-24T04:38:38.580Z,1360.00
2018-05-24T04:39:13.881Z,1492.00
2018-05-24T04:39:52.295Z,1596.00
2018-05-24T04:40:30.733Z,1632.00
2018-05-24T04:41:06.340Z,1600.00
2018-05-24T04:41:41.980Z,1552.00
2018-05-24T04:42:17.091Z,1536.00
2018-05-24T04:42:52.391Z,1548.00
2018-05-24T04:43:28.158Z,1604.00
2018-05-24T04:44:03.664Z,1668.00
2018-05-24T04:44:39.200Z,1712.00
2018-05-24T04:45:14.749Z,1728.00
2018-05-24T04:45:49.954Z,1696.00
2018-05-24T04:46:28.455Z,1648.00
2018-05-24T04:47:03.575Z,1624.00
2018-05-24T04:47:42.152Z,1652.00
2018-05-24T04:48:17.560Z,1720.00
2018-05-24T04:48:52.945Z,1796.00
2018-05-24T04:49:28.674Z,1844.00
2018-05-24T04:50:04.072Z,1828.00
2018-05-24T04:50:41.422Z,1768.00
2018-05-24T04:51:19.329Z,1680.00
2018-05-24T04:51:57.667Z,1620.00
2018-05-24T04:52:33.063Z,1580.00
2018-05-24T04:53:08.381Z,1592.00
2018-05-24T04:53:44.002Z,1644.00
2018-05-24T04:54:19.314Z,1740.00
2018-05-24T04:54:55.518Z,1928.00
2018-05-24T04:55:30.787Z,2160.00
2018-05-24T04:56:08.375Z,2424.00
2018-05-24T04:56:43.884Z,2636.00
2018-05-24T04:57:22.957Z,2800.00
2018-05-24T04:57:58.474Z,2868.00
2018-05-24T04:58:33.770Z,2844.00
2018-05-24T04:59:09.090Z,2756.00
2018-05-24T04:59:45.389Z,2620.00
2018-05-24T05:00:20.833Z,2444.00
2018-05-24T05:00:56.129Z,2292.00
2018-05-24T05:01:32.001Z,2184.00
2018-05-24T05:02:07.240Z,2148.00
2018-05-24T05:02:42.769Z,2160.00
2018-05-24T05:03:17.864Z,2180.00
2018-05-24T05:03:53.309Z,2180.00
2018-05-24T05:04:28.618Z,2200.00
2018-05-24T05:05:03.880Z,2264.00
2018-05-24T05:05:42.404Z,2360.00
2018-05-24T05:06:17.842Z,2456.00
2018-05-24T05:06:54.042Z,2568.00
2018-05-24T05:07:30.182Z,2716.00
2018-05-24T05:08:05.751Z,2816.00
2018-05-24T05:08:41.159Z,2904.00
2018-05-24T05:09:16.267Z,2956.00
2018-05-24T05:09:55.887Z,2948.00
2018-05-24T05:10:31.186Z,2864.00
2018-05-24T05:11:09.714Z,2780.00
2018-05-24T05:11:48.112Z,2692.00
2018-05-24T05:12:23.577Z,2612.00
2018-05-24T05:13:00.115Z,2552.00
2018-05-24T05:13:35.427Z,2540.00
2018-05-24T05:14:10.599Z,2592.00
2018-05-24T05:14:45.988Z,2736.00
2018-05-24T05:15:21.269Z,2908.00
2018-05-24T05:15:56.476Z,3092.00
2018-05-24T05:16:31.973Z,3260.00
2018-05-24T05:17:07.493Z,3400.00
2018-05-24T05:17:42.592Z,3492.00
2018-05-24T05:18:22.607Z,3544.00
2018-05-24T05:18:57.901Z,3572.00
2018-05-24T05:19:33.535Z,3612.00
2018-05-24T05:20:11.506Z,3648.00
2018-05-24T05:20:47.066Z,3660.00
2018-05-24T05:21:22.707Z,3652.00
2018-05-24T05:21:59.450Z,3620.00
2018-05-24T05:22:34.772Z,3580.00
2018-05-24T05:23:13.608Z,3540.00
2018-05-24T05:23:52.595Z,3492.00
2018-05-24T05:24:31.322Z,3460.00
2018-05-24T05:25:06.528Z,3476.00
2018-05-24T05:25:42.097Z,3536.00
2018-05-24T05:26:17.492Z,3628.00
2018-05-24T05:26:52.890Z,3708.00
2018-05-24T05:27:28.378Z,3764.00
2018-05-24T05:28:04.232Z,3836.00
2018-05-24T05:28:39.564Z,3884.00
2018-05-24T05:29:15.497Z,3920.00
2018-05-24T05:29:50.836Z,3948.00
2018-05-24T05:30:26.285Z,3996.00
2018-05-24T05:31:03.979Z,4052.00
2018-05-24T05:31:39.205Z,4156.00
2018-05-24T05:32:14.596Z,4232.00
2018-05-24T05:32:50.014Z,4292.00
2018-05-24T05:33:26.750Z,4376.00
2018-05-24T05:34:02.185Z,4484.00
2018-05-24T05:34:37.688Z,4612.00
2018-05-24T05:35:13.102Z,4736.00
2018-05-24T05:35:48.737Z,4892.00
2018-05-24T05:36:24.192Z,5056.00
2018-05-24T05:37:03.798Z,5276.00
2018-05-24T05:37:39.159Z,5428.00
2018-05-24T05:38:17.657Z,5524.00
2018-05-24T05:38:52.874Z,5684.00
2018-05-24T05:39:28.384Z,5928.00
2018-05-24T05:40:03.884Z,6228.00
2018-05-24T05:40:39.393Z,6548.00
2018-05-24T05:41:18.528Z,6844.00
2018-05-24T05:41:53.625Z,7056.00
2018-05-24T05:42:32.159Z,7224.00
2018-05-24T05:43:07.453Z,7240.00
2018-05-24T05:43:44.673Z,7252.00
2018-05-24T05:44:19.767Z,7320.00
2018-05-24T05:44:55.323Z,7324.00
2018-05-24T05:45:30.656Z,7304.00
2018-05-24T05:46:05.997Z,7252.00
2018-05-24T05:46:41.323Z,7216.00
2018-05-24T05:47:16.946Z,7108.00
2018-05-24T05:47:53.456Z,7068.00
2018-05-24T05:48:28.694Z,7196.00
2018-05-24T05:49:06.526Z,7484.00
2018-05-24T05:49:41.943Z,7764.00
2018-05-24T05:50:20.075Z,8024.00
2018-05-24T05:50:55.663Z,8108.00
2018-05-24T05:51:34.079Z,8096.00
2018-05-24T05:52:09.841Z,8020.00
2018-05-24T05:52:45.237Z,7936.00
2018-05-24T05:53:20.770Z,7812.00
2018-05-24T05:53:56.069Z,7584.00
2018-05-24T05:54:31.795Z,7368.00
2018-05-24T05:55:07.120Z,7060.00
2018-05-24T05:55:43.229Z,6884.00
2018-05-24T05:56:18.745Z,6760.00
2018-05-24T05:56:54.280Z,6796.00
2018-05-24T05:57:30.480Z,7052.00
2018-05-24T05:58:06.110Z,7408.00
2018-05-24T05:58:44.520Z,7776.00
2018-05-24T05:59:19.754Z,8268.00
2018-05-24T05:59:55.145Z,8640.00
2018-05-24T06:00:30.508Z,8824.00
2018-05-24T06:01:05.704Z,8964.00
2018-05-24T06:01:41.089Z,9056.00
2018-05-24T06:02:16.211Z,9080.00
2018-05-24T06:02:51.445Z,9072.00
2018-05-24T06:03:26.842Z,9096.00
2018-05-24T06:04:02.359Z,8980.00
2018-05-24T06:04:37.915Z,8760.00
2018-05-24T06:05:13.490Z,8484.00
2018-05-24T06:05:52.199Z,8216.00
2018-05-24T06:06:27.505Z,8208.00
2018-05-24T06:07:02.806Z,8452.00
2018-05-24T06:07:38.019Z,8836.00
2018-05-24T06:08:13.303Z,9372.00
2018-05-24T06:08:48.446Z,9748.00
2018-05-24T06:09:28.059Z,10112.00
2018-05-24T06:10:03.471Z,10220.00
2018-05-24T06:10:38.792Z,10276.00
2018-05-24T06:11:14.440Z,10212.00
2018-05-24T06:11:52.714Z,10156.00
2018-05-24T06:12:28.062Z,10008.00
2018-05-24T06:13:03.260Z,9860.00
2018-05-24T06:13:38.704Z,9676.00
2018-05-24T06:14:13.912Z,9472.00
2018-05-24T06:14:49.241Z,9100.00
2018-05-24T06:15:24.945Z,8820.00
2018-05-24T06:16:00.603Z,8672.00
2018-05-24T06:16:39.113Z,8688.00
2018-05-24T06:17:14.444Z,8788.00
2018-05-24T06:17:52.948Z,8852.00
2018-05-24T06:18:31.061Z,8848.00
2018-05-24T06:19:08.962Z,8812.00
2018-05-24T06:19:44.530Z,8736.00
2018-05-24T06:20:19.897Z,8628.00
2018-05-24T06:20:57.678Z,8588.00
2018-05-24T06:21:33.210Z,8284.00
2018-05-24T06:22:08.572Z,8020.00
2018-05-24T06:22:47.086Z,7716.00
2018-05-24T06:23:25.435Z,7416.00
2018-05-24T06:24:00.765Z,7240.00
2018-05-24T06:24:36.423Z,7216.00
2018-05-24T06:25:11.728Z,7196.00
2018-05-24T06:25:47.066Z,7292.00
2018-05-24T06:26:22.762Z,7452.00
2018-05-24T06:26:58.084Z,7576.00
2018-05-24T06:27:37.198Z,7792.00
2018-05-24T06:28:12.552Z,7976.00
2018-05-24T06:28:48.253Z,8200.00
2018-05-24T06:29:23.406Z,8364.00
2018-05-24T06:29:58.732Z,8528.00
2018-05-24T06:30:38.035Z,8636.00
2018-05-24T06:31:13.164Z,8668.00
2018-05-24T06:31:48.789Z,8708.00
2018-05-24T06:32:24.497Z,8672.00
2018-05-24T06:32:59.821Z,8708.00
2018-05-24T06:33:35.544Z,8820.00
2018-05-24T06:34:12.119Z,8936.00
2018-05-24T06:34:49.820Z,8932.00
2018-05-24T06:35:25.087Z,8940.00
2018-05-24T06:36:00.269Z,8996.00
2018-05-24T06:36:35.790Z,9176.00
2018-05-24T06:37:10.916Z,9300.00
2018-05-24T06:37:46.243Z,9416.00
2018-05-24T06:38:21.983Z,9452.00
2018-05-24T06:38:57.624Z,9452.00
2018-05-24T06:39:32.909Z,9480.00
2018-05-24T06:40:08.165Z,9504.00
2018-05-24T06:40:43.744Z,9784.00
2018-05-24T06:41:18.857Z,10264.00
2018-05-24T06:41:54.374Z,10796.00
2018-05-24T06:42:29.849Z,11136.00
2018-05-24T06:43:08.358Z,11580.00
2018-05-24T06:43:43.580Z,11868.00
2018-05-24T06:44:18.874Z,12176.00
2018-05-24T06:44:54.093Z,12692.00
2018-05-24T06:45:32.420Z,13232.00
2018-05-24T06:46:08.354Z,13588.00
2018-05-24T06:46:43.750Z,14488.00
2018-05-24T06:47:19.119Z,14852.00
2018-05-24T06:47:54.612Z,15032.00
2018-05-24T06:48:30.337Z,15284.00
2018-05-24T06:49:05.627Z,15640.00
2018-05-24T06:49:44.164Z,15968.00
2018-05-24T06:50:19.689Z,16156.00
2018-05-24T06:50:58.339Z,16528.00
2018-05-24T06:51:33.860Z,16960.00
2018-05-24T06:52:11.469Z,17184.00
2018-05-24T06:52:47.068Z,17760.00
2018-05-24T06:53:22.790Z,16752.00
2018-05-24T06:53:58.273Z,16472.00
2018-05-24T06:54:34.133Z,16452.00
2018-05-24T06:55:09.567Z,17984.00
2018-05-24T06:55:48.170Z,19168.00
2018-05-24T06:56:23.461Z,23360.00
2018-05-24T06:56:58.912Z,23424.00
2018-05-24T06:57:34.425Z,23520.00
2018-05-24T06:58:09.464Z,25024.00
2018-05-24T06:58:50.367Z,25248.00
2018-05-24T06:59:26.011Z,21216.00
2018-05-24T07:00:01.746Z,21088.00
2018-05-24T07:00:41.229Z,20448.00
2018-05-24T07:01:16.544Z,22240.00
2018-05-24T07:01:51.998Z,20448.00
2018-05-24T07:02:27.189Z,18688.00
2018-05-24T07:03:02.670Z,20288.00
2018-05-24T07:03:37.972Z,20672.00
2018-05-24T07:04:14.126Z,22048.00
2018-05-24T07:04:50.829Z,25216.00
2018-05-24T07:05:26.295Z,25536.00
2018-05-24T07:06:01.672Z,24256.00
2018-05-24T07:06:36.894Z,21664.00
2018-05-24T07:07:12.212Z,27968.00
2018-05-24T07:07:47.779Z,28992.00
2018-05-24T07:08:22.997Z,30400.00
2018-05-24T07:08:58.433Z,35840.00
2018-05-24T07:09:33.851Z,30720.00
2018-05-24T07:10:09.078Z,32128.00
2018-05-24T07:10:48.815Z,31712.00
2018-05-24T07:11:24.241Z,29824.00
2018-05-24T07:12:01.936Z,32160.00
2018-05-24T07:12:43.286Z,40800.00
2018-05-24T07:13:22.003Z,40096.00
2018-05-24T07:13:57.351Z,31072.00
2018-05-24T07:14:32.481Z,36128.00
2018-05-24T07:15:08.018Z,42176.00
2018-05-24T07:15:43.895Z,40800.00
2018-05-24T07:16:18.916Z,42368.00
2018-05-24T07:16:57.462Z,37952.00
2018-05-24T07:17:35.907Z,33664.00
2018-05-24T07:18:11.206Z,39296.00
2018-05-24T07:18:46.580Z,41536.00
2018-05-24T07:19:22.075Z,41184.00
2018-05-24T07:19:59.709Z,40096.00
2018-05-24T07:20:35.344Z,39104.00
2018-05-24T07:21:10.862Z,37952.00
2018-05-24T07:21:46.263Z,37440.00
2018-05-24T07:22:21.513Z,36608.00
2018-05-24T07:22:57.255Z,34624.00
2018-05-24T07:23:32.616Z,31840.00
2018-05-24T07:24:08.120Z,31520.00
2018-05-24T07:24:43.363Z,30368.00
2018-05-24T07:25:18.776Z,28192.00
2018-05-24T07:25:55.658Z,26176.00
2018-05-24T07:26:31.070Z,26048.00
2018-05-24T07:27:06.697Z,25120.00
2018-05-24T07:27:42.472Z,26016.00
2018-05-24T07:28:17.833Z,27040.00
2018-05-24T07:28:53.030Z,26720.00
2018-05-24T07:29:28.360Z,25984.00
2018-05-24T07:30:04.157Z,25440.00
2018-05-24T07:30:43.321Z,18432.00
2018-05-24T07:31:21.744Z,23328.00
2018-05-24T07:31:57.394Z,25856.00
2018-05-24T07:32:32.685Z,25856.00
2018-05-24T07:33:08.053Z,26976.00
2018-05-24T07:33:43.647Z,28224.00
2018-05-24T07:34:21.271Z,28128.00
2018-05-24T07:34:58.165Z,27744.00
2018-05-24T07:35:42.070Z,26816.00
2018-05-24T07:36:17.664Z,25504.00